createdAt,value
2023-01-27T00:00:33.727Z,77.55
2023-01-27T00:03:21.040Z,82.70
2023-01-27T00:06:12.124Z,89.10
2023-01-27T00:08:59.253Z,87.60
2023-01-27T00:12:05.374Z,85.18
2023-01-27T00:14:55.816Z,91.35
2023-01-27T00:17:45.372Z,91.80
2023-01-27T00:20:51.543Z,89.22
2023-01-27T00:23:57.739Z,88.20
2023-01-27T00:26:44.916Z,90.20
2023-01-27T00:29:31.969Z,95.32
2023-01-27T00:32:38.190Z,97.05
2023-01-27T00:35:27.518Z,97.80
2023-01-27T00:38:14.727Z,95.45
2023-01-27T00:41:19.903Z,100.38
2023-01-27T00:44:12.832Z,105.05
2023-01-27T00:46:59.986Z,109.63
2023-01-27T00:49:47.162Z,103.75
2023-01-27T00:52:34.202Z,109.07
2023-01-27T00:55:21.341Z,111.95
2023-01-27T00:58:08.480Z,112.97
2023-01-27T01:00:57.509Z,103.65
2023-01-27T01:03:47.522Z,108.30
2023-01-27T01:06:34.918Z,120.68
2023-01-27T01:09:22.028Z,118.18
2023-01-27T01:12:09.340Z,106.93
2023-01-27T01:14:56.426Z,120.63
2023-01-27T01:17:43.547Z,117.93
2023-01-27T01:20:30.796Z,113.88
2023-01-27T01:23:18.229Z,123.95
2023-01-27T01:26:10.313Z,117.80
2023-01-27T01:28:59.949Z,120.78
2023-01-27T01:31:50.416Z,111.82
2023-01-27T01:34:38.097Z,125.30
2023-01-27T01:37:27.998Z,126.03
2023-01-27T01:40:15.242Z,128.57
2023-01-27T01:43:11.537Z,138.23
2023-01-27T01:46:01.456Z,132.35
2023-01-27T01:49:04.009Z,132.77
2023-01-27T01:51:56.757Z,128.93
2023-01-27T01:54:48.420Z,128.18
2023-01-27T01:57:37.711Z,126.73
2023-01-27T02:00:25.238Z,126.75
2023-01-27T02:03:12.441Z,123.28
2023-01-27T02:06:00.517Z,136.27
2023-01-27T02:08:50.815Z,138.93
2023-01-27T02:11:38.010Z,139.82
2023-01-27T02:14:25.745Z,140.68
2023-01-27T02:17:16.381Z,140.75
2023-01-27T02:20:15.543Z,134.43
2023-01-27T02:23:05.586Z,136.93
2023-01-27T02:26:05.234Z,126.45
2023-01-27T02:28:59.257Z,130.90
2023-01-27T02:31:46.529Z,127.35
2023-01-27T02:34:37.060Z,128.10
2023-01-27T02:37:24.720Z,134.07
2023-01-27T02:40:14.030Z,123.10
2023-01-27T02:43:04.010Z,140.18
2023-01-27T02:45:51.229Z,132.98
2023-01-27T02:48:41.549Z,130.68
2023-01-27T02:51:31.487Z,121.97
2023-01-27T02:54:18.585Z,132.38
2023-01-27T02:57:05.853Z,125.45
2023-01-27T02:59:52.983Z,117.38
2023-01-27T03:02:40.160Z,120.55
2023-01-27T03:05:29.534Z,120.90
2023-01-27T03:08:19.754Z,116.80
2023-01-27T03:11:09.801Z,115.70
2023-01-27T03:13:56.873Z,120.25
2023-01-27T03:17:02.512Z,112.80
2023-01-27T03:19:53.301Z,108.82
2023-01-27T03:22:40.423Z,107.22
2023-01-27T03:25:27.505Z,115.57
2023-01-27T03:28:15.278Z,115.53
2023-01-27T03:31:19.823Z,109.05
2023-01-27T03:34:07.461Z,118.10
2023-01-27T03:37:13.226Z,134.90
2023-01-27T03:40:18.933Z,119.63
2023-01-27T03:43:24.754Z,124.95
2023-01-27T03:46:22.216Z,115.03
2023-01-27T03:49:09.424Z,123.13
2023-01-27T03:51:56.589Z,125.80
2023-01-27T03:54:45.792Z,123.60
2023-01-27T03:57:32.822Z,123.78
2023-01-27T04:00:22.428Z,123.47
2023-01-27T04:03:27.979Z,118.22
2023-01-27T04:06:37.109Z,123.97
2023-01-27T04:09:34.035Z,131.88
2023-01-27T04:12:23.641Z,131.05
2023-01-27T04:15:11.070Z,123.47
2023-01-27T04:17:58.336Z,137.90
2023-01-27T04:20:45.495Z,125.50
2023-01-27T04:23:32.735Z,121.78
2023-01-27T04:26:20.258Z,117.50
2023-01-27T04:29:07.896Z,115.60
2023-01-27T04:32:00.731Z,117.50
2023-01-27T04:34:47.822Z,113.70
2023-01-27T04:37:34.933Z,119.25
2023-01-27T04:40:22.029Z,113.97
2023-01-27T04:43:09.078Z,122.43
2023-01-27T04:45:56.208Z,113.22
2023-01-27T04:48:45.953Z,112.93
2023-01-27T04:51:33.505Z,113.47
2023-01-27T04:54:20.643Z,108.72
2023-01-27T04:57:07.773Z,101.10
2023-01-27T04:59:54.896Z,93.35
2023-01-27T05:05:52.592Z,92.68
2023-01-27T05:08:42.528Z,87.32
2023-01-27T05:11:29.839Z,92.60
2023-01-27T05:14:17.168Z,93.68
2023-01-27T05:17:04.314Z,103.18
2023-01-27T05:19:51.447Z,90.38
2023-01-27T05:22:38.585Z,80.80
2023-01-27T05:25:30.767Z,75.85
2023-01-27T05:28:17.903Z,86.70
2023-01-27T05:31:08.037Z,71.10
2023-01-27T05:33:56.320Z,69.90
2023-01-27T05:36:46.285Z,66.72
2023-01-27T05:39:33.330Z,64.68
2023-01-27T05:42:23.009Z,63.40
2023-01-27T05:45:10.380Z,63.28
2023-01-27T05:47:57.512Z,69.65
2023-01-27T05:50:53.351Z,69.60
2023-01-27T05:53:40.534Z,64.22
2023-01-27T05:56:28.235Z,63.47
2023-01-27T05:59:15.379Z,65.28
2023-01-27T06:02:02.565Z,61.80
2023-01-27T06:04:49.669Z,62.92
2023-01-27T06:07:36.834Z,60.25
2023-01-27T06:10:26.539Z,55.40
2023-01-27T06:13:14.679Z,64.57
2023-01-27T06:16:09.674Z,56.78
2023-01-27T06:18:58.402Z,62.13
2023-01-27T06:21:45.525Z,65.57
2023-01-27T06:24:32.630Z,67.38
2023-01-27T06:27:22.155Z,72.07
2023-01-27T06:30:10.040Z,71.68
2023-01-27T06:32:59.276Z,68.10
2023-01-27T06:35:47.239Z,73.35
2023-01-27T06:38:35.202Z,69.82
2023-01-27T06:41:22.297Z,76.22
2023-01-27T06:44:15.558Z,77.80
2023-01-27T06:47:02.612Z,75.80
2023-01-27T06:49:49.853Z,74.97
2023-01-27T06:52:37.299Z,73.80
2023-01-27T06:55:26.093Z,68.72
2023-01-27T06:58:14.388Z,78.60
2023-01-27T07:01:07.011Z,72.90
2023-01-27T07:03:56.502Z,77.00
2023-01-27T07:06:43.947Z,70.47
2023-01-27T07:09:37.555Z,73.10
2023-01-27T07:12:31.061Z,70.43
2023-01-27T07:15:18.500Z,75.57
2023-01-27T07:18:06.091Z,78.30
2023-01-27T07:20:53.726Z,79.15
2023-01-27T07:23:40.929Z,78.55
2023-01-27T07:26:30.226Z,86.57
2023-01-27T07:29:17.291Z,80.00
2023-01-27T07:32:07.053Z,76.07
2023-01-27T07:34:56.877Z,75.95
2023-01-27T07:37:49.825Z,72.80
2023-01-27T07:40:39.919Z,72.30
2023-01-27T07:43:29.283Z,68.88
2023-01-27T07:46:16.598Z,67.63
2023-01-27T07:49:06.032Z,68.32
2023-01-27T07:51:55.330Z,72.97
2023-01-27T07:54:44.275Z,71.40
2023-01-27T07:57:31.490Z,70.07
2023-01-27T08:00:21.866Z,68.90
2023-01-27T08:03:24.557Z,76.80
2023-01-27T08:09:02.186Z,68.65
2023-01-27T08:11:51.586Z,76.20
2023-01-27T08:14:40.981Z,73.97
2023-01-27T08:17:28.340Z,71.60
2023-01-27T08:20:16.136Z,74.45
2023-01-27T08:23:03.621Z,73.03
2023-01-27T08:25:55.399Z,71.57
2023-01-27T08:28:45.358Z,57.95
2023-01-27T08:31:32.849Z,56.20
2023-01-27T08:34:21.968Z,55.17
2023-01-27T08:37:09.326Z,63.78
2023-01-27T08:40:12.424Z,60.53
2023-01-27T08:43:04.687Z,56.58
2023-01-27T08:45:55.677Z,54.63
2023-01-27T08:48:46.221Z,61.78
2023-01-27T08:51:33.704Z,65.82
2023-01-27T08:54:23.051Z,60.28
2023-01-27T08:57:10.439Z,55.00
2023-01-27T09:00:00.437Z,54.65
2023-01-27T09:02:53.690Z,44.58
2023-01-27T09:05:43.874Z,44.55
2023-01-27T09:08:32.088Z,43.47
2023-01-27T09:11:20.363Z,40.03
2023-01-27T09:14:08.231Z,39.92
2023-01-27T09:16:57.920Z,44.40
2023-01-27T09:19:46.798Z,40.90
2023-01-27T09:22:34.173Z,43.40
2023-01-27T09:25:25.131Z,48.28
2023-01-27T09:28:17.522Z,39.78
2023-01-27T09:31:05.364Z,35.28
2023-01-27T09:33:52.819Z,38.83
2023-01-27T09:36:48.122Z,37.97
2023-01-27T09:39:40.598Z,39.28
2023-01-27T09:43:01.176Z,34.10
2023-01-27T09:45:57.911Z,37.10
2023-01-27T09:48:59.634Z,38.58
2023-01-27T09:52:11.339Z,40.80
2023-01-27T09:55:15.894Z,41.63
2023-01-27T09:58:05.964Z,41.30
2023-01-27T10:01:22.243Z,46.13
2023-01-27T10:04:25.622Z,37.45
2023-01-27T10:07:21.955Z,39.53
2023-01-27T10:10:21.879Z,40.88
2023-01-27T10:13:24.795Z,40.58
2023-01-27T10:16:22.372Z,39.92
2023-01-27T10:19:18.915Z,40.00
2023-01-27T10:22:43.276Z,36.00
2023-01-27T10:26:08.923Z,36.28
2023-01-27T10:29:10.493Z,39.70
2023-01-27T10:32:01.877Z,38.92
2023-01-27T10:35:13.170Z,36.80
2023-01-27T10:38:19.077Z,36.53
2023-01-27T10:41:48.917Z,37.90
2023-01-27T10:45:07.131Z,37.17
2023-01-27T10:48:20.414Z,36.83
2023-01-27T10:51:17.120Z,38.05
2023-01-27T10:54:25.107Z,42.10
2023-01-27T10:57:20.280Z,41.42
2023-01-27T11:00:57.450Z,46.17
2023-01-27T11:03:33.637Z,55.17
2023-01-27T11:06:27.907Z,49.85
2023-01-27T11:09:30.442Z,54.25
2023-01-27T11:12:23.629Z,52.85
2023-01-27T11:15:35.278Z,53.92
2023-01-27T11:18:26.039Z,54.55
2023-01-27T11:21:18.591Z,58.67
2023-01-27T11:27:14.048Z,60.47
2023-01-27T11:30:24.366Z,59.20
2023-01-27T11:33:17.597Z,61.85
2023-01-27T11:36:05.086Z,57.08
2023-01-27T11:38:56.339Z,49.97
2023-01-27T11:41:52.224Z,50.75
2023-01-27T11:44:41.038Z,52.17
2023-01-27T11:47:32.848Z,49.45
2023-01-27T11:50:24.105Z,42.03
2023-01-27T11:53:17.795Z,55.10
2023-01-27T11:56:16.015Z,49.50
2023-01-27T11:59:13.851Z,52.05
2023-01-27T12:02:07.486Z,56.63
2023-01-27T12:05:11.136Z,49.83
2023-01-27T12:08:05.256Z,46.00
2023-01-27T12:10:52.449Z,46.40
2023-01-27T12:13:53.016Z,48.35
2023-01-27T12:16:47.781Z,50.42
2023-01-27T12:19:40.379Z,50.83
2023-01-27T12:25:31.397Z,50.95
2023-01-27T12:28:41.812Z,47.35
2023-01-27T12:31:34.234Z,48.78
2023-01-27T12:37:34.016Z,49.63
2023-01-27T12:40:29.125Z,53.72
2023-01-27T12:43:35.538Z,50.00
2023-01-27T12:46:28.413Z,48.15
2023-01-27T12:49:21.475Z,48.85
2023-01-27T12:52:19.255Z,39.22
2023-01-27T12:55:31.795Z,47.22
2023-01-27T12:58:44.772Z,46.83
2023-01-27T13:04:30.236Z,40.88
2023-01-27T13:07:27.423Z,45.35
2023-01-27T13:10:21.112Z,40.92
2023-01-27T13:13:18.938Z,43.03
2023-01-27T13:16:32.175Z,43.40
2023-01-27T13:19:19.931Z,38.30
2023-01-27T13:22:10.123Z,40.92
2023-01-27T13:25:03.519Z,31.58
2023-01-27T13:27:56.742Z,37.08
2023-01-27T13:30:52.341Z,38.22
2023-01-27T13:33:48.883Z,36.22
2023-01-27T13:36:53.937Z,40.78
2023-01-27T13:39:47.668Z,37.35
2023-01-27T13:43:10.859Z,35.58
2023-01-27T13:48:59.820Z,38.58
2023-01-27T13:51:47.624Z,37.15
2023-01-27T13:54:35.097Z,34.20
2023-01-27T13:57:48.773Z,37.15
2023-01-27T14:00:38.309Z,42.65
2023-01-27T14:03:59.186Z,38.13
2023-01-27T14:07:05.128Z,49.72
2023-01-27T14:09:58.464Z,40.70
2023-01-27T14:13:05.117Z,40.10
2023-01-27T14:16:19.212Z,44.05
2023-01-27T14:19:30.059Z,52.72
2023-01-27T14:22:17.558Z,46.50
2023-01-27T14:25:40.144Z,48.80
2023-01-27T14:29:00.251Z,50.90
2023-01-27T14:31:58.843Z,45.72
2023-01-27T14:35:10.060Z,47.92
2023-01-27T14:38:34.282Z,56.35
2023-01-27T14:42:07.807Z,63.05
2023-01-27T14:45:03.484Z,55.10
2023-01-27T14:48:03.710Z,62.47
2023-01-27T14:51:08.225Z,60.72
2023-01-27T14:54:07.762Z,57.35
2023-01-27T14:57:14.073Z,60.85
2023-01-27T15:00:28.108Z,56.80
2023-01-27T15:03:41.657Z,60.00
2023-01-27T15:06:34.956Z,59.50
2023-01-27T15:09:37.933Z,58.70
2023-01-27T15:12:49.063Z,57.17
2023-01-27T15:16:00.502Z,60.92
2023-01-27T15:18:56.039Z,59.58
2023-01-27T15:22:31.818Z,58.92
2023-01-27T15:25:38.129Z,57.20
2023-01-27T15:28:31.235Z,52.58
2023-01-27T15:31:19.051Z,54.50
2023-01-27T15:34:25.626Z,59.80
2023-01-27T15:37:24.422Z,53.38
2023-01-27T15:40:15.956Z,56.80
2023-01-27T15:43:07.506Z,59.67
2023-01-27T15:45:56.324Z,254.02
2023-01-27T15:48:45.423Z,59.13
2023-01-27T15:51:36.873Z,56.78
2023-01-27T15:54:34.981Z,56.75
2023-01-27T15:57:38.817Z,56.03
2023-01-27T16:00:42.533Z,64.07
2023-01-27T16:03:33.224Z,62.50
2023-01-27T16:06:27.360Z,53.45
2023-01-27T16:09:25.653Z,57.35
2023-01-27T16:12:36.758Z,57.70
2023-01-27T16:15:30.515Z,60.97
2023-01-27T16:21:48.081Z,53.45
2023-01-27T16:24:51.182Z,63.33
2023-01-27T16:27:55.043Z,56.70
2023-01-27T16:31:02.195Z,56.53
2023-01-27T16:33:57.098Z,55.95
2023-01-27T16:36:44.728Z,52.75
2023-01-27T16:39:44.666Z,50.22
2023-01-27T16:45:54.186Z,45.97
2023-01-27T16:48:47.892Z,46.05
2023-01-27T16:51:36.638Z,49.05
2023-01-27T16:54:31.229Z,48.80
2023-01-27T16:57:27.463Z,45.75
2023-01-27T17:00:30.606Z,49.53
2023-01-27T17:03:23.960Z,43.83
2023-01-27T17:06:18.287Z,43.33
2023-01-27T17:09:26.949Z,46.22
2023-01-27T17:12:34.308Z,45.97
2023-01-27T17:15:29.191Z,45.85
2023-01-27T17:18:16.734Z,46.00
2023-01-27T17:21:05.592Z,45.47
2023-01-27T17:24:01.785Z,45.95
2023-01-27T17:26:57.332Z,43.38
2023-01-27T17:29:47.458Z,44.72
2023-01-27T17:32:41.347Z,48.45
2023-01-27T17:35:37.117Z,46.47
2023-01-27T17:38:46.037Z,50.55
2023-01-27T17:41:47.940Z,51.13
2023-01-27T17:44:39.964Z,35.17
2023-01-27T17:47:29.678Z,46.55
2023-01-27T17:50:30.603Z,42.85
2023-01-27T17:53:23.818Z,45.22
2023-01-27T17:56:18.107Z,44.70
2023-01-27T17:59:14.563Z,42.88
2023-01-27T18:02:12.200Z,42.97
2023-01-27T18:05:14.386Z,39.83
2023-01-27T18:08:04.084Z,43.10
2023-01-27T18:10:55.102Z,46.85
2023-01-27T18:13:43.001Z,43.33
2023-01-27T18:16:30.508Z,45.78
2023-01-27T18:19:23.966Z,50.13
2023-01-27T18:22:18.978Z,46.28
2023-01-27T18:25:18.123Z,48.28
2023-01-27T18:28:08.754Z,38.35
2023-01-27T18:30:58.590Z,41.92
2023-01-27T18:33:46.710Z,44.78
2023-01-27T18:36:37.062Z,47.75
2023-01-27T18:39:27.555Z,42.75
2023-01-27T18:42:20.223Z,43.97
2023-01-27T18:48:04.171Z,44.90
2023-01-27T18:50:51.908Z,44.00
2023-01-27T18:53:39.468Z,44.20
2023-01-27T18:56:27.698Z,42.22
2023-01-27T18:59:14.989Z,39.38
2023-01-27T19:02:04.778Z,42.70
2023-01-27T19:04:56.539Z,40.67
2023-01-27T19:07:44.625Z,40.67
2023-01-27T19:10:34.817Z,37.55
2023-01-27T19:13:23.811Z,42.85
2023-01-27T19:16:16.923Z,43.88
2023-01-27T19:19:04.491Z,40.13
2023-01-27T19:21:51.985Z,38.50
2023-01-27T19:24:40.344Z,40.10
2023-01-27T19:27:28.031Z,40.97
2023-01-27T19:30:26.956Z,41.50
2023-01-27T19:33:21.828Z,34.90
2023-01-27T19:36:12.003Z,42.35
2023-01-27T19:39:11.676Z,38.55
2023-01-27T19:41:58.864Z,42.50
2023-01-27T19:44:46.049Z,39.97
2023-01-27T19:47:33.164Z,46.13
2023-01-27T19:50:25.092Z,38.78
2023-01-27T19:53:14.050Z,39.55
2023-01-27T19:56:01.770Z,42.28
2023-01-27T19:58:55.020Z,39.30
2023-01-27T20:01:44.336Z,35.28
2023-01-27T20:04:32.142Z,38.60
2023-01-27T20:07:19.824Z,44.42
2023-01-27T20:10:11.508Z,37.92
2023-01-27T20:13:04.919Z,33.47
2023-01-27T20:15:52.768Z,35.65
2023-01-27T20:18:40.355Z,35.75
2023-01-27T20:21:36.441Z,38.25
2023-01-27T20:24:26.724Z,34.38
2023-01-27T20:27:16.501Z,33.90
2023-01-27T20:30:06.628Z,33.65
2023-01-27T20:32:57.205Z,32.60
2023-01-27T20:35:44.793Z,34.30
2023-01-27T20:38:32.099Z,33.55
2023-01-27T20:41:22.760Z,32.97
2023-01-27T20:44:12.465Z,30.90
2023-01-27T20:47:05.150Z,31.85
2023-01-27T20:49:52.347Z,34.10
2023-01-27T20:52:40.410Z,35.90
2023-01-27T20:55:30.375Z,32.83
2023-01-27T20:58:20.653Z,33.05
2023-01-27T21:01:13.415Z,33.15
2023-01-27T21:04:03.843Z,34.65
2023-01-27T21:06:53.662Z,33.90
2023-01-27T21:09:40.827Z,31.48
2023-01-27T21:12:30.269Z,32.92
2023-01-27T21:15:17.671Z,34.90
2023-01-27T21:18:04.942Z,34.85
2023-01-27T21:20:54.667Z,31.98
2023-01-27T21:23:42.015Z,32.50
2023-01-27T21:26:32.767Z,33.17
2023-01-27T21:29:20.429Z,31.65
2023-01-27T21:32:08.124Z,34.55
2023-01-27T21:34:56.631Z,31.45
2023-01-27T21:37:43.919Z,39.63
2023-01-27T21:40:33.286Z,33.22
2023-01-27T21:43:38.998Z,35.70
2023-01-27T21:46:26.631Z,36.78
2023-01-27T21:49:14.128Z,34.03
2023-01-27T21:52:01.587Z,35.05
2023-01-27T21:54:49.577Z,35.30
2023-01-27T21:57:37.113Z,28.92
2023-01-27T22:00:36.091Z,31.30
2023-01-27T22:03:24.049Z,32.47
2023-01-27T22:06:11.424Z,30.90
2023-01-27T22:08:58.746Z,35.70
2023-01-27T22:11:45.924Z,33.70
2023-01-27T22:14:36.111Z,34.85
2023-01-27T22:17:23.750Z,34.45
2023-01-27T22:20:18.159Z,35.13
2023-01-27T22:23:05.588Z,35.85
2023-01-27T22:25:56.040Z,30.05
2023-01-27T22:28:44.753Z,32.95
2023-01-27T22:31:34.132Z,34.70
2023-01-27T22:34:21.499Z,32.70
2023-01-27T22:37:08.626Z,33.08
2023-01-27T22:39:55.766Z,34.13
2023-01-27T22:42:45.473Z,32.17
2023-01-27T22:45:32.674Z,29.10
2023-01-27T22:48:20.486Z,33.47
2023-01-27T22:51:07.840Z,32.97
2023-01-27T22:53:55.148Z,30.98
2023-01-27T22:56:43.310Z,27.30
2023-01-27T22:59:32.768Z,33.35
2023-01-27T23:02:21.095Z,27.98
2023-01-27T23:05:08.684Z,36.97
2023-01-27T23:07:58.824Z,40.83
2023-01-27T23:10:48.949Z,31.60
2023-01-27T23:13:36.734Z,30.55
2023-01-27T23:16:24.039Z,32.83
2023-01-27T23:19:11.369Z,28.63
2023-01-27T23:21:58.785Z,25.27
2023-01-27T23:24:49.319Z,29.20
2023-01-27T23:27:36.884Z,29.15
2023-01-27T23:30:24.045Z,25.92
2023-01-27T23:33:16.322Z,32.15
2023-01-27T23:36:03.781Z,24.92
2023-01-27T23:38:53.323Z,27.92
2023-01-27T23:41:40.642Z,30.23
2023-01-27T23:44:27.947Z,25.50
2023-01-27T23:47:16.599Z,25.27
2023-01-27T23:50:04.061Z,26.80
2023-01-27T23:52:54.223Z,27.45
2023-01-27T23:55:41.753Z,27.98
2023-01-27T23:58:29.809Z,25.00
